Hlavní strana
METAR-TAF:

METAR-TAF

Letiště :

Banjul, Gambie

zeměpisná šířka: 13-21N, zeměpisná délka: 016-48W, výška: 36 m

Aktuální stav počasí

Zpráva byla vytvořena před 1 hodinou a 0 minutami, v 18:00 UTC
Bezvětří
Teplota 31°C
Vlhkost vzduchu 46%
Tlak 1010 hPa
Viditelnost 10 km a více
Žádná oblačnost pod 1500 m, nevyskytují se cumulonimby.

METAR: GBYD 141800Z 00000KT CAVOK 31/18 Q1010

Čas: 19:00 (19:00 UTC)

Předpověď počasí

Zpráva byla vytvořena před 1 hodinou a 30 minutami, v 17:30 UTC
Předpověď platná od 14 v 18 UTC do 15 v 24 UTC
Severní vítr 8 kt
Viditelnost 10 km a více
Žádná oblačnost pod 1500 m, nevyskytují se cumulonimby.

TAF: GBYD 141730Z 1418/1524 01008KT CAVOK

Stav a předpovědi počasí z více než 4 000 letišť (zprávy METAR a TAF).

Červené a žluté tečky na mapě představují dostupné meteorologické stanice.

Když kurzor umístíte na tečku, zobrazí se název stanice.

Pak kliknutím zobrazíte stav a předpověď počasí.

Chcete-li změnit mapu, kliknutím na zelené tlačítko se znaménkem +mapu přiblížíte, kliknutím na zelené tlačítko se znaménkem – mapu oddálíte a kliknutím na zelené šipky přejdete na sousední mapy.


METAR-TAF: